createdAt,value
2023-01-19T00:01:31.957Z,99126.91
2023-01-19T00:04:01.054Z,99119.88
2023-01-19T00:06:29.030Z,99110.84
2023-01-19T00:08:56.822Z,99124.88
2023-01-19T00:11:24.870Z,99132.75
2023-01-19T00:13:53.624Z,99133.94
2023-01-19T00:16:23.452Z,99115.03
2023-01-19T00:18:52.093Z,99131.06
2023-01-19T00:21:22.647Z,99137.84
2023-01-19T00:23:52.620Z,99139.84
2023-01-19T00:26:22.691Z,99143.97
2023-01-19T00:28:50.963Z,99137.88
2023-01-19T00:31:20.583Z,99149.88
2023-01-19T00:33:49.260Z,99131.28
2023-01-19T00:36:17.227Z,99145.25
2023-01-19T00:38:46.270Z,99135.06
2023-01-19T00:41:13.931Z,99151.03
2023-01-19T00:43:40.590Z,99125.31
2023-01-19T00:46:08.342Z,99128.53
2023-01-19T00:48:36.089Z,99132.44
2023-01-19T00:51:03.846Z,99120.34
2023-01-19T00:53:32.620Z,99134.13
2023-01-19T00:56:01.690Z,99132.28
2023-01-19T00:58:29.368Z,99139.16
2023-01-19T01:01:03.483Z,99135.34
2023-01-19T01:03:31.614Z,99127.84
2023-01-19T01:05:59.274Z,99137.34
2023-01-19T01:08:27.011Z,99136.44
2023-01-19T01:10:55.877Z,99129.91
2023-01-19T01:13:27.496Z,99132.13
2023-01-19T01:15:56.755Z,99136.75
2023-01-19T01:18:24.886Z,99133.50
2023-01-19T01:20:54.571Z,99136.78
2023-01-19T01:23:23.746Z,99129.69
2023-01-19T01:25:51.480Z,99125.88
2023-01-19T01:28:19.153Z,99124.78
2023-01-19T01:30:48.334Z,99126.53
2023-01-19T01:33:16.027Z,99136.88
2023-01-19T01:36:03.651Z,99145.56
2023-01-19T01:38:31.354Z,99142.69
2023-01-19T01:40:59.431Z,99139.81
2023-01-19T01:43:44.774Z,99149.41
2023-01-19T01:46:16.222Z,99147.91
2023-01-19T01:48:47.443Z,99143.47
2023-01-19T01:51:27.618Z,99152.22
2023-01-19T01:54:07.883Z,99138.72
2023-01-19T01:56:37.938Z,99167.78
2023-01-19T01:59:09.010Z,99155.69
2023-01-19T02:01:55.759Z,99147.28
2023-01-19T02:04:24.323Z,99153.34
2023-01-19T02:07:09.723Z,99154.88
2023-01-19T02:09:55.521Z,99153.94
2023-01-19T02:12:41.277Z,99163.94
2023-01-19T02:15:16.794Z,99155.59
2023-01-19T02:17:45.874Z,99142.28
2023-01-19T02:20:14.414Z,99151.03
2023-01-19T02:22:47.560Z,99154.25
2023-01-19T02:25:17.314Z,99143.72
2023-01-19T02:27:45.278Z,99147.97
2023-01-19T02:30:14.305Z,99153.66
2023-01-19T02:32:42.028Z,99150.38
2023-01-19T02:35:10.603Z,99165.19
2023-01-19T02:37:40.149Z,99134.66
2023-01-19T02:40:11.577Z,99143.56
2023-01-19T02:42:44.750Z,99150.81
2023-01-19T02:45:14.466Z,99143.09
2023-01-19T02:47:45.010Z,99157.03
2023-01-19T02:50:38.534Z,99139.69
2023-01-19T02:53:16.077Z,99162.34
2023-01-19T02:55:43.953Z,99138.00
2023-01-19T02:58:12.922Z,99131.63
2023-01-19T03:00:43.730Z,99143.91
2023-01-19T03:03:17.185Z,99133.88
2023-01-19T03:05:49.899Z,99149.38
2023-01-19T03:08:18.320Z,99151.81
2023-01-19T03:10:47.666Z,99150.22
2023-01-19T03:13:18.021Z,99158.06
2023-01-19T03:15:46.770Z,99156.44
2023-01-19T03:18:15.419Z,99143.91
2023-01-19T03:20:43.058Z,99148.28
2023-01-19T03:23:11.463Z,99146.50
2023-01-19T03:25:40.661Z,99132.88
2023-01-19T03:28:08.143Z,99149.72
2023-01-19T03:30:38.307Z,99129.69
2023-01-19T03:33:07.253Z,99134.22
2023-01-19T03:35:35.708Z,99146.34
2023-01-19T03:38:04.384Z,99146.69
2023-01-19T03:40:32.238Z,99137.78
2023-01-19T03:43:00.317Z,99153.78
2023-01-19T03:45:27.948Z,99140.78
2023-01-19T03:47:57.167Z,99147.19
2023-01-19T03:50:27.114Z,99137.28
2023-01-19T03:53:01.841Z,99137.38
2023-01-19T03:55:29.567Z,99158.97
2023-01-19T03:57:57.085Z,99153.41
2023-01-19T04:00:24.729Z,99147.97
2023-01-19T04:02:52.318Z,99142.28
2023-01-19T04:05:21.154Z,99148.81
2023-01-19T04:07:49.171Z,99145.56
2023-01-19T04:10:17.122Z,99148.78
2023-01-19T04:12:44.657Z,99150.72
2023-01-19T04:15:12.392Z,99137.63
2023-01-19T04:17:40.186Z,99145.91
2023-01-19T04:20:08.217Z,99149.13
2023-01-19T04:22:39.067Z,99153.63
2023-01-19T04:25:07.550Z,99151.91
2023-01-19T04:27:35.047Z,99154.09
2023-01-19T04:30:03.623Z,99139.97
2023-01-19T04:32:31.474Z,99139.88
2023-01-19T04:34:59.869Z,99151.56
2023-01-19T04:37:27.448Z,99130.44
2023-01-19T04:39:56.296Z,99122.66
2023-01-19T04:42:23.948Z,99148.34
2023-01-19T04:44:51.961Z,99157.81
2023-01-19T04:47:19.666Z,99142.22
2023-01-19T04:49:47.175Z,99154.81
2023-01-19T04:52:14.717Z,99152.22
2023-01-19T04:54:42.270Z,99171.13
2023-01-19T04:57:11.097Z,99155.13
2023-01-19T04:59:38.583Z,99158.31
2023-01-19T05:02:06.199Z,99157.56
2023-01-19T05:04:33.811Z,99166.53
2023-01-19T05:07:01.265Z,99159.88
2023-01-19T05:09:28.846Z,99154.22
2023-01-19T05:11:56.591Z,99163.06
2023-01-19T05:14:25.420Z,99161.16
2023-01-19T05:16:52.911Z,99164.38
2023-01-19T05:19:21.186Z,99169.06
2023-01-19T05:21:48.664Z,99151.94
2023-01-19T05:24:16.423Z,99161.69
2023-01-19T05:26:43.923Z,99167.22
2023-01-19T05:29:11.490Z,99161.50
2023-01-19T05:31:40.400Z,99165.94
2023-01-19T05:34:07.926Z,99160.72
2023-01-19T05:36:35.408Z,99175.00
2023-01-19T05:39:02.889Z,99169.56
2023-01-19T05:41:30.387Z,99176.91
2023-01-19T05:43:58.002Z,99179.34
2023-01-19T05:46:25.613Z,99172.34
2023-01-19T05:48:54.463Z,99167.88
2023-01-19T05:51:22.005Z,99181.44
2023-01-19T05:53:49.553Z,99187.94
2023-01-19T05:56:17.041Z,99182.44
2023-01-19T05:58:44.563Z,99176.84
2023-01-19T06:01:12.106Z,99193.78
2023-01-19T06:03:40.973Z,99191.84
2023-01-19T06:06:10.001Z,99196.16
2023-01-19T06:08:37.571Z,99203.38
2023-01-19T06:11:06.384Z,99219.84
2023-01-19T06:13:33.841Z,99224.13
2023-01-19T06:16:02.631Z,99224.22
2023-01-19T06:18:30.232Z,99228.63
2023-01-19T06:20:59.538Z,99238.09
2023-01-19T06:23:28.788Z,99238.72
2023-01-19T06:25:56.419Z,99249.28
2023-01-19T06:28:24.073Z,99261.56
2023-01-19T06:30:51.753Z,99254.63
2023-01-19T06:33:19.423Z,99264.53
2023-01-19T06:35:47.268Z,99273.59
2023-01-19T06:38:15.010Z,99283.34
2023-01-19T06:40:43.859Z,99279.00
2023-01-19T06:43:11.663Z,99292.25
2023-01-19T06:45:39.476Z,99300.13
2023-01-19T06:48:07.223Z,99300.06
2023-01-19T06:50:34.723Z,99297.47
2023-01-19T06:53:02.679Z,99307.78
2023-01-19T06:55:30.390Z,99306.88
2023-01-19T06:57:59.446Z,99321.78
2023-01-19T07:00:27.220Z,99326.25
2023-01-19T07:02:54.842Z,99328.19
2023-01-19T07:05:22.715Z,99329.69
2023-01-19T07:07:53.510Z,99328.69
2023-01-19T07:10:21.083Z,99331.69
2023-01-19T07:12:48.612Z,99347.31
2023-01-19T07:15:19.451Z,99360.47
2023-01-19T07:17:46.948Z,99362.47
2023-01-19T07:20:14.585Z,99361.63
2023-01-19T07:22:43.443Z,99368.09
2023-01-19T07:25:11.463Z,99373.53
2023-01-19T07:27:40.522Z,99383.81
2023-01-19T07:30:08.662Z,99381.91
2023-01-19T07:32:38.293Z,99396.03
2023-01-19T07:35:06.203Z,99397.16
2023-01-19T07:37:33.673Z,99398.56
2023-01-19T07:40:01.159Z,99401.09
2023-01-19T07:42:28.687Z,99419.97
2023-01-19T07:44:56.208Z,99424.75
2023-01-19T07:47:23.752Z,99421.16
2023-01-19T07:49:53.172Z,99418.75
2023-01-19T07:52:21.230Z,99420.00
2023-01-19T07:54:50.939Z,99427.69
2023-01-19T07:57:19.304Z,99428.66
2023-01-19T07:59:46.834Z,99437.31
2023-01-19T08:02:16.287Z,99444.69
2023-01-19T08:04:43.987Z,99453.28
2023-01-19T08:07:12.882Z,99460.34
2023-01-19T08:09:40.393Z,99457.00
2023-01-19T08:12:07.934Z,99452.06
2023-01-19T08:14:35.505Z,99468.59
2023-01-19T08:17:03.394Z,99476.63
2023-01-19T08:19:30.885Z,99470.72
2023-01-19T08:21:58.998Z,99481.50
2023-01-19T08:24:29.391Z,99485.72
2023-01-19T08:27:00.243Z,99499.72
2023-01-19T08:29:27.891Z,99495.75
2023-01-19T08:31:56.507Z,99494.41
2023-01-19T08:34:24.158Z,99503.75
2023-01-19T08:36:51.721Z,99511.78
2023-01-19T08:39:19.226Z,99509.72
2023-01-19T08:41:48.086Z,99506.66
2023-01-19T08:44:16.018Z,99526.78
2023-01-19T08:46:43.638Z,99531.19
2023-01-19T08:49:11.258Z,99538.94
2023-01-19T08:51:39.171Z,99534.72
2023-01-19T08:54:06.809Z,99528.91
2023-01-19T08:56:34.360Z,99540.66
2023-01-19T08:59:09.984Z,99543.97
2023-01-19T09:01:38.575Z,99550.16
2023-01-19T09:04:06.449Z,99554.38
2023-01-19T09:06:34.206Z,99549.34
2023-01-19T09:09:01.773Z,99563.00
2023-01-19T09:11:29.334Z,99563.91
2023-01-19T09:13:56.856Z,99560.53
2023-01-19T09:16:27.010Z,99564.25
2023-01-19T09:18:54.737Z,99584.75
2023-01-19T09:21:22.250Z,99584.50
2023-01-19T09:23:50.127Z,99584.25
2023-01-19T09:26:17.735Z,99595.22
2023-01-19T09:28:45.290Z,99588.06
2023-01-19T09:31:12.820Z,99590.00
2023-01-19T09:33:41.875Z,99597.56
2023-01-19T09:36:09.372Z,99598.25
2023-01-19T09:38:36.882Z,99590.69
2023-01-19T09:41:05.030Z,99607.94
2023-01-19T09:43:37.050Z,99613.59
2023-01-19T09:46:05.124Z,99604.34
2023-01-19T09:48:34.526Z,99596.59
2023-01-19T09:51:04.241Z,99610.66
2023-01-19T09:53:39.789Z,99596.50
2023-01-19T09:56:09.400Z,99611.59
2023-01-19T09:58:36.862Z,99617.13
2023-01-19T10:01:06.530Z,99629.78
2023-01-19T10:03:34.127Z,99636.41
2023-01-19T10:06:03.809Z,99633.94
2023-01-19T10:08:32.396Z,99637.66
2023-01-19T10:10:59.885Z,99637.25
2023-01-19T10:13:30.145Z,99634.97
2023-01-19T10:16:01.040Z,99627.25
2023-01-19T10:18:34.544Z,99621.56
2023-01-19T10:21:05.554Z,99624.94
2023-01-19T10:23:36.103Z,99634.28
2023-01-19T10:26:05.694Z,99630.63
2023-01-19T10:28:33.184Z,99636.63
2023-01-19T10:31:00.919Z,99649.56
2023-01-19T10:33:28.565Z,99654.69
2023-01-19T10:35:56.194Z,99648.38
2023-01-19T10:38:25.109Z,99649.97
2023-01-19T10:40:54.574Z,99661.88
2023-01-19T10:43:38.211Z,99660.81
2023-01-19T10:46:08.987Z,99668.97
2023-01-19T10:48:40.047Z,99662.44
2023-01-19T10:51:07.648Z,99667.47
2023-01-19T10:53:36.589Z,99672.84
2023-01-19T10:56:11.695Z,99663.09
2023-01-19T10:58:40.334Z,99682.03
2023-01-19T11:01:14.131Z,99651.81
2023-01-19T11:03:41.771Z,99668.47
2023-01-19T11:06:26.105Z,99657.59
2023-01-19T11:08:55.424Z,99678.44
2023-01-19T11:11:23.081Z,99666.00
2023-01-19T11:14:03.342Z,99666.25
2023-01-19T11:16:31.495Z,99669.13
2023-01-19T11:19:01.932Z,99666.75
2023-01-19T11:21:30.260Z,99673.78
2023-01-19T11:23:59.439Z,99680.31
2023-01-19T11:26:27.983Z,99671.75
2023-01-19T11:28:56.061Z,99680.31
2023-01-19T11:31:31.200Z,99670.16
2023-01-19T11:33:59.331Z,99673.31
2023-01-19T11:36:27.370Z,99673.31
2023-01-19T11:38:55.993Z,99667.63
2023-01-19T11:41:27.404Z,99678.78
2023-01-19T11:43:55.967Z,99666.97
2023-01-19T11:46:24.398Z,99673.13
2023-01-19T11:48:57.298Z,99673.63
2023-01-19T11:51:24.854Z,99660.09
2023-01-19T11:53:53.169Z,99666.25
2023-01-19T11:56:23.121Z,99684.78
2023-01-19T11:58:52.041Z,99687.34
2023-01-19T12:01:21.900Z,99691.31
2023-01-19T12:03:54.615Z,99690.34
2023-01-19T12:06:23.187Z,99676.44
2023-01-19T12:08:51.995Z,99663.94
2023-01-19T12:11:20.038Z,99672.75
2023-01-19T12:13:47.595Z,99665.28
2023-01-19T12:16:22.175Z,99690.44
2023-01-19T12:18:51.060Z,99672.75
2023-01-19T12:21:18.590Z,99688.66
2023-01-19T12:23:48.303Z,99698.47
2023-01-19T12:26:33.542Z,99696.34
2023-01-19T12:29:01.529Z,99690.00
2023-01-19T12:31:30.591Z,99678.56
2023-01-19T12:34:05.199Z,99689.56
2023-01-19T12:36:36.519Z,99690.00
2023-01-19T12:39:04.383Z,99698.03
2023-01-19T12:41:32.587Z,99694.31
2023-01-19T12:44:16.300Z,99698.03
2023-01-19T12:46:46.034Z,99688.41
2023-01-19T12:49:17.545Z,99692.88
2023-01-19T12:51:45.698Z,99683.75
2023-01-19T12:54:18.438Z,99685.31
2023-01-19T12:56:46.902Z,99688.16
2023-01-19T12:59:21.587Z,99683.72
2023-01-19T13:02:04.056Z,99682.19
2023-01-19T13:04:33.801Z,99688.75
2023-01-19T13:07:10.358Z,99689.09
2023-01-19T13:09:38.542Z,99692.59
2023-01-19T13:12:13.613Z,99697.56
2023-01-19T13:14:41.508Z,99706.38
2023-01-19T13:17:26.137Z,99707.03
2023-01-19T13:19:57.275Z,99688.13
2023-01-19T13:22:57.703Z,99686.66
2023-01-19T13:25:29.561Z,99721.38
2023-01-19T13:27:57.110Z,99707.41
2023-01-19T13:30:26.990Z,99700.19
2023-01-19T13:32:55.292Z,99684.94
2023-01-19T13:35:24.149Z,99685.66
2023-01-19T13:37:51.659Z,99671.00
2023-01-19T13:40:19.859Z,99684.34
2023-01-19T13:42:48.038Z,99708.47
2023-01-19T13:45:29.647Z,99698.72
2023-01-19T13:47:57.935Z,99706.06
2023-01-19T13:50:27.541Z,99705.34
2023-01-19T13:52:56.623Z,99728.19
2023-01-19T13:55:24.539Z,99733.41
2023-01-19T13:57:54.469Z,99730.84
2023-01-19T14:00:23.041Z,99731.41
2023-01-19T14:02:58.751Z,99743.75
2023-01-19T14:05:29.032Z,99742.78
2023-01-19T14:08:06.725Z,99737.44
2023-01-19T14:10:34.454Z,99734.47
2023-01-19T14:13:02.409Z,99749.38
2023-01-19T14:15:30.018Z,99730.59
2023-01-19T14:18:19.665Z,99740.97
2023-01-19T14:20:54.011Z,99741.16
2023-01-19T14:23:38.112Z,99736.69
2023-01-19T14:26:05.934Z,99736.13
2023-01-19T14:28:39.336Z,99738.91
2023-01-19T14:31:19.077Z,99731.84
2023-01-19T14:33:47.141Z,99760.34
2023-01-19T14:36:23.869Z,99737.97
2023-01-19T14:38:51.528Z,99745.19
2023-01-19T14:41:23.182Z,99743.66
2023-01-19T14:43:50.760Z,99747.91
2023-01-19T14:46:18.617Z,99752.09
2023-01-19T14:48:47.112Z,99768.66
2023-01-19T14:51:16.096Z,99764.03
2023-01-19T14:53:47.267Z,99763.59
2023-01-19T14:56:14.763Z,99775.09
2023-01-19T14:58:42.254Z,99776.84
2023-01-19T15:01:09.828Z,99772.56
2023-01-19T15:03:45.832Z,99768.22
2023-01-19T15:06:13.715Z,99774.22
2023-01-19T15:08:41.234Z,99779.97
2023-01-19T15:11:10.927Z,99777.81
2023-01-19T15:13:39.115Z,99793.25
2023-01-19T15:16:08.802Z,99791.91
2023-01-19T15:18:36.588Z,99778.31
2023-01-19T15:21:04.300Z,99799.50
2023-01-19T15:23:31.836Z,99793.78
2023-01-19T15:26:00.125Z,99806.56
2023-01-19T15:28:29.047Z,99804.88
2023-01-19T15:30:57.678Z,99799.38
2023-01-19T15:33:26.284Z,99806.63
2023-01-19T15:35:53.949Z,99816.03
2023-01-19T15:38:22.354Z,99817.72
2023-01-19T15:40:51.663Z,99830.59
2023-01-19T15:43:21.014Z,99829.63
2023-01-19T15:45:50.718Z,99833.97
2023-01-19T15:48:19.956Z,99831.75
2023-01-19T15:50:47.849Z,99822.94
2023-01-19T15:53:15.839Z,99832.56
2023-01-19T15:55:43.308Z,99826.00
2023-01-19T15:58:13.896Z,99830.75
2023-01-19T16:00:41.573Z,99823.97
2023-01-19T16:03:11.038Z,99834.44
2023-01-19T16:05:43.432Z,99839.66
2023-01-19T16:08:11.644Z,99836.28
2023-01-19T16:10:39.258Z,99835.03
2023-01-19T16:13:06.754Z,99837.66
2023-01-19T16:15:35.303Z,99837.94
2023-01-19T16:18:02.938Z,99846.59
2023-01-19T16:20:32.388Z,99857.19
2023-01-19T16:23:13.552Z,99850.78
2023-01-19T16:25:41.814Z,99867.75
2023-01-19T16:28:09.386Z,99861.03
2023-01-19T16:30:36.942Z,99860.38
2023-01-19T16:33:05.247Z,99857.41
2023-01-19T16:35:34.203Z,99867.94
2023-01-19T16:38:01.780Z,99861.38
2023-01-19T16:40:29.384Z,99865.19
2023-01-19T16:42:56.923Z,99874.94
2023-01-19T16:45:24.469Z,99869.66
2023-01-19T16:47:52.241Z,99878.75
2023-01-19T16:50:19.810Z,99873.66
2023-01-19T16:52:50.584Z,99881.75
2023-01-19T16:55:18.261Z,99892.44
2023-01-19T16:57:45.809Z,99887.38
2023-01-19T17:00:13.972Z,99884.25
2023-01-19T17:02:42.621Z,99900.56
2023-01-19T17:05:10.478Z,99906.16
2023-01-19T17:07:38.055Z,99897.69
2023-01-19T17:10:07.921Z,99905.16
2023-01-19T17:12:35.426Z,99910.53
2023-01-19T17:15:02.968Z,99906.97
2023-01-19T17:17:30.494Z,99906.34
2023-01-19T17:20:00.021Z,99902.75
2023-01-19T17:22:27.551Z,99897.22
2023-01-19T17:24:55.109Z,99900.63
2023-01-19T17:27:23.927Z,99906.53
2023-01-19T17:29:51.401Z,99914.75
2023-01-19T17:32:18.863Z,99913.19
2023-01-19T17:34:47.082Z,99913.41
2023-01-19T17:37:14.569Z,99911.47
2023-01-19T17:39:42.156Z,99904.69
2023-01-19T17:42:10.112Z,99899.19
2023-01-19T17:44:38.936Z,99906.44
2023-01-19T17:47:06.419Z,99918.63
2023-01-19T17:49:33.930Z,99915.16
2023-01-19T17:52:01.417Z,99923.72
2023-01-19T17:54:28.898Z,99916.00
2023-01-19T17:56:56.428Z,99924.34
2023-01-19T17:59:23.987Z,99942.88
2023-01-19T18:01:52.903Z,99941.47
2023-01-19T18:04:20.661Z,99945.78
2023-01-19T18:06:49.075Z,99949.72
2023-01-19T18:09:16.606Z,99954.00
2023-01-19T18:11:45.238Z,99951.25
2023-01-19T18:14:12.738Z,99958.47
2023-01-19T18:16:40.434Z,99955.50
2023-01-19T18:19:09.461Z,99945.34
2023-01-19T18:21:38.070Z,99940.09
2023-01-19T18:24:05.914Z,99954.84
2023-01-19T18:26:33.961Z,99958.22
2023-01-19T18:29:01.611Z,99955.81
2023-01-19T18:31:29.173Z,99966.59
2023-01-19T18:33:56.684Z,99944.66
2023-01-19T18:36:25.567Z,99953.84
2023-01-19T18:38:53.643Z,99958.16
2023-01-19T18:41:21.598Z,99969.06
2023-01-19T18:43:49.141Z,99970.63
2023-01-19T18:46:16.805Z,99980.91
2023-01-19T18:48:44.365Z,99979.22
2023-01-19T18:51:12.446Z,99977.97
2023-01-19T18:53:41.417Z,99980.38
2023-01-19T18:56:10.140Z,99972.91
2023-01-19T18:58:37.902Z,99971.75
2023-01-19T19:01:05.811Z,99968.59
2023-01-19T19:03:33.288Z,99962.19
2023-01-19T19:06:02.891Z,99974.81
2023-01-19T19:08:30.739Z,99970.69
2023-01-19T19:10:59.558Z,99979.66
2023-01-19T19:13:27.123Z,99996.41
2023-01-19T19:15:56.885Z,99991.16
2023-01-19T19:18:24.446Z,99992.59
2023-01-19T19:20:51.937Z,99994.00
2023-01-19T19:23:19.475Z,99996.44
2023-01-19T19:25:47.174Z,99996.47
2023-01-19T19:28:16.043Z,100003.81
2023-01-19T19:30:44.514Z,99998.44
2023-01-19T19:33:11.998Z,99991.78
2023-01-19T19:35:39.485Z,99996.03
2023-01-19T19:38:07.029Z,100017.19
2023-01-19T19:40:34.524Z,100020.00
2023-01-19T19:43:01.989Z,100019.44
2023-01-19T19:45:30.942Z,100021.72
2023-01-19T19:47:58.450Z,100032.88
2023-01-19T19:50:25.932Z,100025.38
2023-01-19T19:52:53.413Z,100043.09
2023-01-19T19:55:20.934Z,100036.34
2023-01-19T19:57:48.504Z,100043.66
2023-01-19T20:00:16.390Z,100045.88
2023-01-19T20:02:45.586Z,100038.94
2023-01-19T20:05:13.126Z,100044.03
2023-01-19T20:07:46.225Z,100041.09
2023-01-19T20:10:14.085Z,100045.69
2023-01-19T20:12:41.714Z,100032.00
2023-01-19T20:15:09.882Z,100050.22
2023-01-19T20:17:37.563Z,100038.66
2023-01-19T20:20:07.122Z,100047.41
2023-01-19T20:22:34.666Z,100050.59
2023-01-19T20:25:02.194Z,100061.66
2023-01-19T20:27:29.883Z,100059.91
2023-01-19T20:29:58.363Z,100076.75
2023-01-19T20:32:25.954Z,100084.59
2023-01-19T20:34:53.448Z,100082.91
2023-01-19T20:37:22.353Z,100078.38
2023-01-19T20:39:49.870Z,100080.25
2023-01-19T20:42:17.368Z,100088.84
2023-01-19T20:44:44.903Z,100083.19
2023-01-19T20:47:12.453Z,100079.84
2023-01-19T20:49:40.016Z,100102.22
2023-01-19T20:52:07.490Z,100099.44
2023-01-19T20:54:36.386Z,100102.91
2023-01-19T20:57:03.887Z,100107.88
2023-01-19T20:59:31.378Z,100111.09
2023-01-19T21:01:59.002Z,100114.78
2023-01-19T21:04:26.509Z,100115.75
2023-01-19T21:06:54.059Z,100120.66
2023-01-19T21:09:22.855Z,100131.19
2023-01-19T21:11:51.719Z,100108.66
2023-01-19T21:14:19.259Z,100140.28
2023-01-19T21:16:46.821Z,100138.28
2023-01-19T21:19:14.337Z,100109.31
2023-01-19T21:21:41.906Z,100130.09
2023-01-19T21:24:10.262Z,100136.78
2023-01-19T21:26:38.007Z,100138.22
2023-01-19T21:29:06.965Z,100132.78
2023-01-19T21:31:34.517Z,100137.38
2023-01-19T21:34:02.113Z,100150.59
2023-01-19T21:36:29.627Z,100141.50
2023-01-19T21:39:00.492Z,100147.91
2023-01-19T21:41:28.293Z,100147.03
2023-01-19T21:43:55.768Z,100144.31
2023-01-19T21:46:28.987Z,100147.38
2023-01-19T21:48:56.849Z,100135.84
2023-01-19T21:51:24.346Z,100149.91
2023-01-19T21:53:52.288Z,100149.03
2023-01-19T21:56:19.789Z,100153.03
2023-01-19T21:58:47.279Z,100134.78
2023-01-19T22:01:15.088Z,100150.03
2023-01-19T22:03:44.086Z,100150.03
2023-01-19T22:06:12.297Z,100154.34
2023-01-19T22:08:39.841Z,100133.88
2023-01-19T22:11:07.828Z,100149.63
2023-01-19T22:13:35.834Z,100137.97
2023-01-19T22:16:03.773Z,100142.94
2023-01-19T22:18:31.311Z,100127.41
2023-01-19T22:21:09.025Z,100159.16
2023-01-19T22:23:36.645Z,100154.66
2023-01-19T22:26:04.288Z,100172.25
2023-01-19T22:28:31.866Z,100163.53
2023-01-19T22:31:03.710Z,100176.41
2023-01-19T22:33:31.321Z,100185.03
2023-01-19T22:36:11.206Z,100175.34
2023-01-19T22:38:40.040Z,100180.06
2023-01-19T22:41:14.625Z,100181.25
2023-01-19T22:43:42.132Z,100162.53
2023-01-19T22:46:09.649Z,100171.66
2023-01-19T22:48:37.430Z,100161.94
2023-01-19T22:51:04.999Z,100181.78
2023-01-19T22:53:33.937Z,100178.22
2023-01-19T22:56:01.458Z,100191.38
2023-01-19T22:58:29.143Z,100174.72
2023-01-19T23:00:56.749Z,100189.47
2023-01-19T23:03:24.310Z,100191.28
2023-01-19T23:05:51.857Z,100189.28
2023-01-19T23:08:19.383Z,100192.22
2023-01-19T23:10:48.278Z,100186.22
2023-01-19T23:13:15.823Z,100213.09
2023-01-19T23:15:43.333Z,100184.81
2023-01-19T23:18:10.826Z,100204.13
2023-01-19T23:20:38.348Z,100215.41
2023-01-19T23:23:05.988Z,100223.63
2023-01-19T23:25:33.479Z,100226.13
2023-01-19T23:28:02.340Z,100227.28
2023-01-19T23:30:29.835Z,100230.94
2023-01-19T23:32:57.379Z,100243.03
2023-01-19T23:35:24.838Z,100242.69
2023-01-19T23:37:52.317Z,100227.94
2023-01-19T23:40:19.847Z,100239.47
2023-01-19T23:42:47.321Z,100242.72
2023-01-19T23:45:16.295Z,100239.59
2023-01-19T23:47:44.094Z,100233.09
2023-01-19T23:50:12.296Z,100233.00
2023-01-19T23:52:39.784Z,100244.75
2023-01-19T23:55:07.915Z,100226.00
2023-01-19T23:57:35.425Z,100243.53
